Time;durP1;ratioP1;P1;durP2;ratioP2;P2;SDS_P1;SDS_P2;PMS_P1;PMS_P2;Temp;Humidity;BMP_temperature;BMP_pressure;BME280_temperature;BME280_humidity;BME280_pressure;Samples;Min_cycle;Max_cycle;Signal;HPM_P1;HPM_P2
2022/09/18 00:01:19;;;;;;;1.20;1.08;;;;;;;;;;2075507;28;20026;-66
2022/09/18 00:02:38;;;;;;;1.40;1.23;;;;;;;;;;2076910;28;20030;-66
2022/09/18 00:03:59;;;;;;;2.47;1.30;;;;;;;;;;2074359;28;20042;-66
2022/09/18 00:05:18;;;;;;;1.35;1.10;;;;;;;;;;2077347;28;20069;-67
2022/09/18 00:06:38;;;;;;;1.33;1.23;;;;;;;;;;2075404;28;20435;-66
2022/09/18 00:07:58;;;;;;;1.02;1.02;;;;;;;;;;2074112;28;21345;-66
2022/09/18 00:09:17;;;;;;;1.80;1.25;;;;;;;;;;2076132;28;20026;-66
2022/09/18 00:10:40;;;;;;;1.30;1.20;;;;;;;;;;2070902;28;20441;-66
2022/09/18 00:11:59;;;;;;;3.58;1.05;;;;;;;;;;2074956;28;20086;-65
2022/09/18 00:13:18;;;;;;;1.75;1.00;;;;;;;;;;2074021;28;20466;-65
2022/09/18 00:14:37;;;;;;;1.63;1.50;;;;;;;;;;2071814;28;20025;-65
2022/09/18 00:15:56;;;;;;;2.03;1.85;;;;;;;;;;2072331;28;20034;-65
2022/09/18 00:17:15;;;;;;;2.03;0.93;;;;;;;;;;2075130;28;20022;-65
2022/09/18 00:18:34;;;;;;;2.10;1.10;;;;;;;;;;2074856;28;20137;-65
2022/09/18 00:19:53;;;;;;;1.00;1.00;;;;;;;;;;2075751;28;20033;-65
2022/09/18 00:21:23;;;;;;;0.90;0.90;;;;;;;;;;2077854;28;20101;-65
2022/09/18 00:22:42;;;;;;;6.22;1.55;;;;;;;;;;2077198;28;20491;-65
2022/09/18 00:24:02;;;;;;;3.53;1.27;;;;;;;;;;2075564;28;20077;-65
2022/09/18 00:25:21;;;;;;;0.98;0.98;;;;;;;;;;2072770;28;20069;-65
2022/09/18 00:26:40;;;;;;;1.77;0.95;;;;;;;;;;2074575;28;20038;-64
2022/09/18 00:27:59;;;;;;;1.15;1.05;;;;;;;;;;2077072;28;20405;-65
2022/09/18 00:29:18;;;;;;;1.73;1.23;;;;;;;;;;2075621;28;20477;-64
2022/09/18 00:30:37;;;;;;;1.10;1.05;;;;;;;;;;2075690;28;20026;-64
2022/09/18 00:31:58;;;;;;;1.08;0.98;;;;;;;;;;2077722;28;20041;-64
2022/09/18 00:33:17;;;;;;;2.05;1.00;;;;;;;;;;2075824;28;20042;-65
2022/09/18 00:34:37;;;;;;;3.05;1.20;;;;;;;;;;2078767;28;20025;-65
2022/09/18 00:36:01;;;;;;;1.05;1.00;;;;;;;;;;2077610;28;20029;-65
2022/09/18 00:37:20;;;;;;;1.45;1.35;;;;;;;;;;2074884;28;20037;-64
2022/09/18 00:38:39;;;;;;;1.15;1.15;;;;;;;;;;2074542;28;20054;-65
2022/09/18 00:39:58;;;;;;;1.05;0.95;;;;;;;;;;2075136;28;20026;-65
2022/09/18 00:41:22;;;;;;;1.33;1.20;;;;;;;;;;2074102;28;20030;-65
2022/09/18 00:42:42;;;;;;;1.13;1.10;;;;;;;;;;2081403;28;20029;-65
2022/09/18 00:44:39;;;;;;;3.28;1.00;;;;;;;;;;2078052;28;20494;-66
2022/09/18 00:46:05;;;;;;;5.80;1.10;;;;;;;;;;2057765;28;20031;-65
2022/09/18 00:47:26;;;;;;;1.08;1.08;;;;;;;;;;2058418;28;20039;-66
2022/09/18 00:48:45;;;;;;;1.00;1.00;;;;;;;;;;2056532;28;20058;-66
2022/09/18 00:50:16;;;;;;;1.58;1.00;;;;;;;;;;2059721;28;20414;-66
2022/09/18 00:51:35;;;;;;;3.22;1.30;;;;;;;;;;2074745;28;20041;-67
2022/09/18 00:52:55;;;;;;;1.02;0.88;;;;;;;;;;2073605;28;20668;-66
2022/09/18 00:54:22;;;;;;;1.23;1.15;;;;;;;;;;2074207;28;20038;-66
2022/09/18 00:55:41;;;;;;;1.25;0.80;;;;;;;;;;2077437;28;20695;-66
2022/09/18 00:57:05;;;;;;;1.42;1.10;;;;;;;;;;2076053;28;20061;-66
2022/09/18 00:58:23;;;;;;;1.20;1.10;;;;;;;;;;2078498;28;20378;-66
2022/09/18 00:59:44;;;;;;;1.45;1.35;;;;;;;;;;2076230;28;20108;-64
2022/09/18 01:01:03;;;;;;;1.20;1.00;;;;;;;;;;2079719;28;20097;-64
2022/09/18 01:02:22;;;;;;;1.27;1.17;;;;;;;;;;2078364;28;20489;-65
2022/09/18 01:03:41;;;;;;;2.92;1.08;;;;;;;;;;2074259;28;20489;-65
2022/09/18 01:05:00;;;;;;;1.08;1.08;;;;;;;;;;2075552;28;20687;-66
2022/09/18 01:06:42;;;;;;;2.08;1.10;;;;;;;;;;2077901;28;20185;-65
2022/09/18 01:08:08;;;;;;;5.40;1.13;;;;;;;;;;2077493;28;20121;-65
2022/09/18 01:09:47;;;;;;;0.98;0.90;;;;;;;;;;2077568;28;20029;-66
2022/09/18 01:11:26;;;;;;;1.00;0.90;;;;;;;;;;2079399;28;20038;-65
2022/09/18 01:12:54;;;;;;;2.13;1.17;;;;;;;;;;2076795;28;20516;-65
2022/09/18 01:14:16;;;;;;;1.10;1.08;;;;;;;;;;2077206;28;20437;-65
2022/09/18 01:15:54;;;;;;;0.90;0.90;;;;;;;;;;2073143;28;20398;-66
2022/09/18 01:17:14;;;;;;;1.30;0.75;;;;;;;;;;2077242;28;20026;-65
2022/09/18 01:18:45;;;;;;;1.90;0.90;;;;;;;;;;2076714;28;20494;-65
2022/09/18 01:20:04;;;;;;;1.50;1.10;;;;;;;;;;2074979;28;20037;-65
2022/09/18 01:21:36;;;;;;;1.15;1.10;;;;;;;;;;2074387;28;20108;-65
2022/09/18 01:23:06;;;;;;;1.30;1.20;;;;;;;;;;2083092;28;20071;-65
2022/09/18 01:24:33;;;;;;;1.13;1.00;;;;;;;;;;2076544;28;20120;-65
2022/09/18 01:25:55;;;;;;;1.10;1.00;;;;;;;;;;2077057;28;20428;-66
2022/09/18 01:27:26;;;;;;;2.65;1.00;;;;;;;;;;2079464;28;20486;-66
2022/09/18 01:28:57;;;;;;;2.08;0.93;;;;;;;;;;2076463;28;21452;-66
2022/09/18 01:30:16;;;;;;;0.85;0.85;;;;;;;;;;2076367;28;20025;-66
2022/09/18 01:31:39;;;;;;;1.25;1.00;;;;;;;;;;2075412;28;20080;-66
2022/09/18 01:33:02;;;;;;;4.05;1.10;;;;;;;;;;2079002;28;20490;-66
2022/09/18 01:34:21;;;;;;;;;;;;;;;;;;2078520;28;20033;-66
2022/09/18 01:35:51;;;;;;;1.13;1.02;;;;;;;;;;2076102;28;19913;-67
2022/09/18 01:37:10;;;;;;;1.10;1.10;;;;;;;;;;2076488;28;20025;-66
2022/09/18 01:38:32;;;;;;;2.10;1.05;;;;;;;;;;2076458;28;20398;-66
2022/09/18 01:39:53;;;;;;;1.10;0.95;;;;;;;;;;2072354;28;20029;-66
2022/09/18 01:41:19;;;;;;;4.00;1.27;;;;;;;;;;2076569;28;20509;-66
2022/09/18 01:42:40;;;;;;;2.38;1.13;;;;;;;;;;2078974;28;20033;-66
2022/09/18 01:44:00;;;;;;;1.23;1.10;;;;;;;;;;2073186;28;20030;-66
2022/09/18 01:45:22;;;;;;;2.08;1.10;;;;;;;;;;2075016;28;20045;-66
2022/09/18 01:46:43;;;;;;;1.90;1.00;;;;;;;;;;2075639;28;20041;-66
2022/09/18 01:48:06;;;;;;;5.75;1.10;;;;;;;;;;2077084;28;20196;-66
2022/09/18 01:49:28;;;;;;;1.77;0.95;;;;;;;;;;2078083;28;20038;-66
2022/09/18 01:50:50;;;;;;;1.13;1.02;;;;;;;;;;2074924;28;20037;-66
2022/09/18 01:52:21;;;;;;;2.05;1.48;;;;;;;;;;2078003;28;20046;-66
2022/09/18 01:53:42;;;;;;;1.08;0.98;;;;;;;;;;2075406;28;20030;-66
2022/09/18 01:55:02;;;;;;;2.42;1.05;;;;;;;;;;2076906;28;20030;-66
2022/09/18 01:56:26;;;;;;;1.38;1.27;;;;;;;;;;2077259;28;20062;-66
2022/09/18 01:57:51;;;;;;;1.88;1.45;;;;;;;;;;2074323;28;20471;-66
2022/09/18 01:59:12;;;;;;;1.95;1.00;;;;;;;;;;2074123;28;20030;-66
2022/09/18 02:00:31;;;;;;;3.20;1.10;;;;;;;;;;2076228;28;20030;-66
2022/09/18 02:01:50;;;;;;;1.60;1.02;;;;;;;;;;2076438;28;20478;-66
2022/09/18 02:03:14;;;;;;;2.42;1.00;;;;;;;;;;2079891;28;20041;-66
2022/09/18 02:04:36;;;;;;;1.45;1.35;;;;;;;;;;2078319;28;20030;-66
2022/09/18 02:05:58;;;;;;;1.50;1.30;;;;;;;;;;2073022;28;20474;-66
2022/09/18 02:07:16;;;;;;;0.90;0.90;;;;;;;;;;2077632;28;20041;-66
2022/09/18 02:09:02;;;;;;;1.92;1.35;;;;;;;;;;2076232;28;20120;-66
2022/09/18 02:10:22;;;;;;;2.58;1.17;;;;;;;;;;2077034;28;20041;-66
2022/09/18 02:11:43;;;;;;;1.27;1.17;;;;;;;;;;2077084;28;20420;-66
2022/09/18 02:13:03;;;;;;;1.95;1.15;;;;;;;;;;2079926;28;20029;-66
2022/09/18 02:14:28;;;;;;;2.05;1.15;;;;;;;;;;2073775;28;20029;-66
2022/09/18 02:15:48;;;;;;;1.30;1.20;;;;;;;;;;2073822;28;20494;-66
2022/09/18 02:17:39;;;;;;;1.67;1.27;;;;;;;;;;2076087;28;20042;-66
2022/09/18 02:19:02;;;;;;;3.00;1.17;;;;;;;;;;2068275;28;20116;-66
2022/09/18 02:20:28;;;;;;;2.65;1.48;;;;;;;;;;2076043;28;20041;-66
2022/09/18 02:21:48;;;;;;;2.20;1.20;;;;;;;;;;2075985;28;20038;-66
2022/09/18 02:23:07;;;;;;;2.08;1.15;;;;;;;;;;2076369;28;20041;-66
2022/09/18 02:24:29;;;;;;;2.42;1.73;;;;;;;;;;2077317;28;20063;-66
2022/09/18 02:25:58;;;;;;;1.05;0.98;;;;;;;;;;2077623;28;20022;-66
2022/09/18 02:27:18;;;;;;;3.45;0.98;;;;;;;;;;2077925;28;20063;-66
2022/09/18 02:28:37;;;;;;;2.33;1.13;;;;;;;;;;2079771;28;20120;-66
2022/09/18 02:29:59;;;;;;;1.38;1.20;;;;;;;;;;2077705;28;20038;-66
2022/09/18 02:31:19;;;;;;;1.00;1.00;;;;;;;;;;2076185;28;20501;-65
2022/09/18 02:32:39;;;;;;;1.00;1.00;;;;;;;;;;2076370;28;20310;-66
2022/09/18 02:33:57;;;;;;;1.10;1.00;;;;;;;;;;2077689;28;20357;-66
2022/09/18 02:35:16;;;;;;;1.33;1.20;;;;;;;;;;2079429;28;20393;-66
2022/09/18 02:36:47;;;;;;;1.05;0.95;;;;;;;;;;2076153;28;20033;-66
2022/09/18 02:38:16;;;;;;;1.45;1.10;;;;;;;;;;2075848;28;20026;-66
2022/09/18 02:39:54;;;;;;;1.20;1.10;;;;;;;;;;2076717;28;20506;-66
2022/09/18 02:41:29;;;;;;;1.38;1.25;;;;;;;;;;2075744;28;20022;-66
2022/09/18 02:43:07;;;;;;;2.10;1.00;;;;;;;;;;2078225;28;20109;-66
2022/09/18 02:44:35;;;;;;;1.50;1.40;;;;;;;;;;2076829;28;20029;-66
2022/09/18 02:46:00;;;;;;;1.10;1.10;;;;;;;;;;2074091;28;20034;-66
2022/09/18 02:47:38;;;;;;;1.50;1.40;;;;;;;;;;2077979;28;20053;-66
2022/09/18 02:49:06;;;;;;;1.50;1.40;;;;;;;;;;2077986;28;20108;-66
2022/09/18 02:50:26;;;;;;;1.40;1.30;;;;;;;;;;2079701;28;20568;-66
2022/09/18 02:51:53;;;;;;;1.45;1.25;;;;;;;;;;2076239;28;20086;-66
2022/09/18 02:53:24;;;;;;;2.22;1.52;;;;;;;;;;2076378;28;20124;-66
2022/09/18 02:54:43;;;;;;;1.33;1.30;;;;;;;;;;2079384;28;20025;-66
2022/09/18 02:56:03;;;;;;;1.60;1.50;;;;;;;;;;2080228;28;20549;-66
2022/09/18 02:57:28;;;;;;;1.25;1.25;;;;;;;;;;2079203;28;20037;-66
2022/09/18 02:58:53;;;;;;;1.45;1.35;;;;;;;;;;2076599;28;20498;-66
2022/09/18 03:00:15;;;;;;;1.80;1.70;;;;;;;;;;2074119;28;20053;-66
2022/09/18 03:01:35;;;;;;;1.80;1.70;;;;;;;;;;2076758;28;20070;-66
2022/09/18 03:02:58;;;;;;;6.22;1.80;;;;;;;;;;2077512;28;20034;-66
2022/09/18 03:04:21;;;;;;;2.05;1.58;;;;;;;;;;2079605;28;20037;-66
2022/09/18 03:05:40;;;;;;;1.95;1.30;;;;;;;;;;2076822;28;20030;-66
2022/09/18 03:06:59;;;;;;;1.65;1.55;;;;;;;;;;2077329;28;20152;-66
2022/09/18 03:08:18;;;;;;;1.70;1.60;;;;;;;;;;2077783;28;20440;-66
2022/09/18 03:09:37;;;;;;;1.95;1.85;;;;;;;;;;2078567;28;20034;-66
2022/09/18 03:10:56;;;;;;;2.67;1.60;;;;;;;;;;2077967;28;20041;-66
2022/09/18 03:12:15;;;;;;;2.05;1.90;;;;;;;;;;2074232;28;20502;-66
2022/09/18 03:13:34;;;;;;;2.35;2.15;;;;;;;;;;2074275;28;20037;-66
2022/09/18 03:14:53;;;;;;;2.30;1.88;;;;;;;;;;2076657;28;20033;-66
2022/09/18 03:16:13;;;;;;;1.70;1.60;;;;;;;;;;2076175;28;20026;-66
2022/09/18 03:17:32;;;;;;;2.30;2.10;;;;;;;;;;2075268;28;20025;-65
2022/09/18 03:18:50;;;;;;;2.15;1.98;;;;;;;;;;2077555;28;20030;-66
2022/09/18 03:20:10;;;;;;;2.55;2.15;;;;;;;;;;2078142;28;20026;-66
2022/09/18 03:21:29;;;;;;;2.13;2.03;;;;;;;;;;2076575;28;20025;-66
2022/09/18 03:22:48;;;;;;;2.38;2.17;;;;;;;;;;2077015;28;20030;-66
2022/09/18 03:24:07;;;;;;;2.17;1.88;;;;;;;;;;2077594;28;20386;-66
2022/09/18 03:25:25;;;;;;;2.22;2.00;;;;;;;;;;2075044;28;20029;-66
2022/09/18 03:26:45;;;;;;;3.05;1.83;;;;;;;;;;2079503;28;20983;-66
2022/09/18 03:28:04;;;;;;;3.55;2.22;;;;;;;;;;2077450;28;20041;-66
2022/09/18 03:29:23;;;;;;;2.40;2.20;;;;;;;;;;2077634;28;20033;-66
2022/09/18 03:30:43;;;;;;;3.30;2.47;;;;;;;;;;2077445;28;20140;-66
2022/09/18 03:32:02;;;;;;;2.85;2.10;;;;;;;;;;2076858;28;20026;-66
2022/09/18 03:33:21;;;;;;;1.90;1.80;;;;;;;;;;2078546;28;20045;-66
2022/09/18 03:34:40;;;;;;;2.05;1.95;;;;;;;;;;2077656;28;20031;-66
2022/09/18 03:35:59;;;;;;;2.15;2.05;;;;;;;;;;2076018;28;20394;-66
2022/09/18 03:37:17;;;;;;;2.10;2.00;;;;;;;;;;2077752;28;20390;-66
2022/09/18 03:38:37;;;;;;;3.60;2.05;;;;;;;;;;2077119;28;20030;-66
2022/09/18 03:39:55;;;;;;;2.60;2.38;;;;;;;;;;2074407;28;20041;-65
2022/09/18 03:41:14;;;;;;;2.05;1.85;;;;;;;;;;2078643;28;20037;-64
2022/09/18 03:42:33;;;;;;;2.88;2.30;;;;;;;;;;2078296;28;20037;-64
2022/09/18 03:43:52;;;;;;;1.77;1.67;;;;;;;;;;2073825;28;20018;-65
2022/09/18 03:45:11;;;;;;;1.90;1.80;;;;;;;;;;2074513;28;20042;-65
2022/09/18 03:46:30;;;;;;;1.95;1.85;;;;;;;;;;2075223;28;20862;-65
2022/09/18 03:47:49;;;;;;;3.78;2.05;;;;;;;;;;2074880;28;20033;-65
2022/09/18 03:49:08;;;;;;;2.75;1.63;;;;;;;;;;2079954;28;20025;-65
2022/09/18 03:50:27;;;;;;;2.15;1.95;;;;;;;;;;2079511;28;20474;-65
2022/09/18 03:51:45;;;;;;;1.95;1.70;;;;;;;;;;2075653;28;20477;-65
2022/09/18 03:53:05;;;;;;;1.85;1.75;;;;;;;;;;2073638;28;20061;-67
2022/09/18 03:54:24;;;;;;;3.22;2.05;;;;;;;;;;2076854;28;20042;-65
2022/09/18 03:55:43;;;;;;;2.45;1.70;;;;;;;;;;2077830;28;20033;-67
2022/09/18 03:57:02;;;;;;;2.03;1.92;;;;;;;;;;2075074;28;20026;-65
2022/09/18 03:58:21;;;;;;;2.35;2.13;;;;;;;;;;2074636;28;20137;-65
2022/09/18 03:59:40;;;;;;;3.45;2.35;;;;;;;;;;2076533;28;20124;-66
2022/09/18 04:00:59;;;;;;;2.33;2.00;;;;;;;;;;2076498;28;20522;-65
2022/09/18 04:02:18;;;;;;;1.95;1.85;;;;;;;;;;2076234;28;20021;-65
2022/09/18 04:03:37;;;;;;;1.80;1.70;;;;;;;;;;2074877;28;20045;-65
2022/09/18 04:04:56;;;;;;;2.00;1.90;;;;;;;;;;2077680;28;20039;-66
2022/09/18 04:06:15;;;;;;;1.90;1.80;;;;;;;;;;2077043;28;20030;-66
2022/09/18 04:07:34;;;;;;;2.22;2.00;;;;;;;;;;2073636;28;20038;-66
2022/09/18 04:08:53;;;;;;;2.05;1.95;;;;;;;;;;2076358;28;20033;-66
2022/09/18 04:10:13;;;;;;;1.98;1.88;;;;;;;;;;2077334;28;20160;-66
2022/09/18 04:11:31;;;;;;;2.72;2.50;;;;;;;;;;2077566;28;20034;-66
2022/09/18 04:12:50;;;;;;;2.10;1.90;;;;;;;;;;2077227;28;20061;-66
2022/09/18 04:14:09;;;;;;;4.65;2.00;;;;;;;;;;2078100;28;20022;-66
2022/09/18 04:15:28;;;;;;;2.30;1.90;;;;;;;;;;2073371;28;20426;-66
2022/09/18 04:16:48;;;;;;;2.35;1.70;;;;;;;;;;2074504;28;20042;-64
2022/09/18 04:18:07;;;;;;;2.13;1.83;;;;;;;;;;2076802;28;20034;-65
2022/09/18 04:19:26;;;;;;;3.08;1.75;;;;;;;;;;2080180;28;20029;-66
2022/09/18 04:20:45;;;;;;;9.25;1.98;;;;;;;;;;2077584;28;20022;-65
2022/09/18 04:22:04;;;;;;;2.15;1.60;;;;;;;;;;2074261;28;20639;-65
2022/09/18 04:23:22;;;;;;;1.83;1.73;;;;;;;;;;2073961;28;20124;-65
2022/09/18 04:24:42;;;;;;;1.70;1.60;;;;;;;;;;2074781;28;20037;-65
2022/09/18 04:26:07;;;;;;;3.80;1.67;;;;;;;;;;2076317;28;20505;-65
2022/09/18 04:27:26;;;;;;;1.80;1.70;;;;;;;;;;2078161;28;20046;-66
2022/09/18 04:28:45;;;;;;;3.03;1.95;;;;;;;;;;2074551;28;20398;-65
2022/09/18 04:30:05;;;;;;;1.85;1.75;;;;;;;;;;2079478;28;20045;-65
2022/09/18 04:31:24;;;;;;;1.73;1.63;;;;;;;;;;2085361;28;20049;-65
2022/09/18 04:32:44;;;;;;;1.98;1.88;;;;;;;;;;2079127;28;20034;-65
2022/09/18 04:34:03;;;;;;;3.30;1.80;;;;;;;;;;2077263;28;20029;-65
2022/09/18 04:35:22;;;;;;;2.50;2.00;;;;;;;;;;2078487;28;20045;-67
2022/09/18 04:36:41;;;;;;;4.03;2.05;;;;;;;;;;2075613;28;20033;-66
2022/09/18 04:38:00;;;;;;;4.13;2.30;;;;;;;;;;2074480;28;20505;-66
2022/09/18 04:39:19;;;;;;;2.10;2.00;;;;;;;;;;2077643;28;20042;-66
2022/09/18 04:40:38;;;;;;;3.58;1.83;;;;;;;;;;2076146;28;20429;-66
2022/09/18 04:41:58;;;;;;;2.20;2.00;;;;;;;;;;2078847;28;20447;-66
2022/09/18 04:43:19;;;;;;;2.90;2.10;;;;;;;;;;2076902;28;20030;-66
2022/09/18 04:44:37;;;;;;;2.30;1.85;;;;;;;;;;2076272;28;20042;-66
2022/09/18 04:45:57;;;;;;;2.17;1.80;;;;;;;;;;2074747;28;20038;-66
2022/09/18 04:47:15;;;;;;;2.95;1.80;;;;;;;;;;2076719;28;20045;-66
2022/09/18 04:48:34;;;;;;;3.13;1.85;;;;;;;;;;2077808;28;20025;-66
2022/09/18 04:49:53;;;;;;;3.45;1.70;;;;;;;;;;2080480;28;20112;-66
2022/09/18 04:51:12;;;;;;;2.17;1.67;;;;;;;;;;2079993;28;20034;-66
2022/09/18 04:52:31;;;;;;;3.78;2.15;;;;;;;;;;2079463;28;20076;-66
2022/09/18 04:53:50;;;;;;;2.47;2.20;;;;;;;;;;2076487;28;20066;-66
2022/09/18 04:55:09;;;;;;;3.17;2.05;;;;;;;;;;2076783;28;20029;-66
2022/09/18 04:56:28;;;;;;;3.25;1.88;;;;;;;;;;2083208;28;20033;-66
2022/09/18 04:57:47;;;;;;;2.45;2.25;;;;;;;;;;2082377;28;20045;-66
2022/09/18 04:59:06;;;;;;;2.35;2.15;;;;;;;;;;2075770;28;20033;-66
2022/09/18 05:00:27;;;;;;;5.07;2.22;;;;;;;;;;2074226;28;20034;-66
2022/09/18 05:01:46;;;;;;;2.63;2.42;;;;;;;;;;2073157;28;20137;-66
2022/09/18 05:03:05;;;;;;;1.92;1.83;;;;;;;;;;2078616;28;20060;-66
2022/09/18 05:04:24;;;;;;;2.78;2.00;;;;;;;;;;2079934;28;20038;-66
2022/09/18 05:05:43;;;;;;;4.43;2.35;;;;;;;;;;2078658;28;20486;-65
2022/09/18 05:07:03;;;;;;;7.63;2.20;;;;;;;;;;2078726;28;20034;-66
2022/09/18 05:08:23;;;;;;;3.70;2.13;;;;;;;;;;2077812;28;20026;-66
2022/09/18 05:09:42;;;;;;;2.35;2.00;;;;;;;;;;2080497;28;20541;-66
2022/09/18 05:11:03;;;;;;;4.07;2.50;;;;;;;;;;2079148;28;20112;-66
2022/09/18 05:12:22;;;;;;;2.20;2.00;;;;;;;;;;2075966;28;20029;-66
2022/09/18 05:13:42;;;;;;;2.05;1.77;;;;;;;;;;2077676;28;20037;-66
2022/09/18 05:15:01;;;;;;;3.08;1.88;;;;;;;;;;2076588;28;20109;-66
2022/09/18 05:16:20;;;;;;;3.20;2.17;;;;;;;;;;2078830;28;20034;-66
2022/09/18 05:17:39;;;;;;;2.38;1.80;;;;;;;;;;2079658;28;20017;-66
2022/09/18 05:18:58;;;;;;;3.72;2.03;;;;;;;;;;2078699;28;20398;-66
2022/09/18 05:20:17;;;;;;;2.78;1.67;;;;;;;;;;2078377;28;20033;-66
2022/09/18 05:21:36;;;;;;;2.17;1.88;;;;;;;;;;2077127;28;20026;-66
2022/09/18 05:22:55;;;;;;;2.42;1.90;;;;;;;;;;2076407;28;20104;-66
2022/09/18 05:24:14;;;;;;;2.88;2.25;;;;;;;;;;2078997;28;20152;-66
2022/09/18 05:25:33;;;;;;;4.65;1.90;;;;;;;;;;2079851;28;20086;-66
2022/09/18 05:26:52;;;;;;;3.28;1.88;;;;;;;;;;2079321;28;20030;-66
2022/09/18 05:28:14;;;;;;;3.45;2.00;;;;;;;;;;2077237;28;20505;-66
2022/09/18 05:29:33;;;;;;;2.28;1.67;;;;;;;;;;2074884;28;20046;-67
2022/09/18 05:30:56;;;;;;;3.05;2.20;;;;;;;;;;2074970;28;20037;-67
2022/09/18 05:32:18;;;;;;;2.38;2.17;;;;;;;;;;2079066;28;20029;-67
2022/09/18 05:33:40;;;;;;;2.10;2.00;;;;;;;;;;2079237;28;20112;-66
2022/09/18 05:34:58;;;;;;;4.18;2.30;;;;;;;;;;2078572;28;20116;-65
2022/09/18 05:36:17;;;;;;;2.28;1.90;;;;;;;;;;2075268;28;20068;-65
2022/09/18 05:37:36;;;;;;;2.38;2.15;;;;;;;;;;2077219;28;20030;-66
2022/09/18 05:38:55;;;;;;;2.85;1.90;;;;;;;;;;2079604;28;20413;-65
2022/09/18 05:40:14;;;;;;;4.65;2.00;;;;;;;;;;2074629;28;20109;-66
2022/09/18 05:41:33;;;;;;;4.45;2.15;;;;;;;;;;2074169;28;20033;-65
2022/09/18 05:42:52;;;;;;;3.03;2.00;;;;;;;;;;2076541;28;20491;-65
2022/09/18 05:44:11;;;;;;;7.18;2.42;;;;;;;;;;2078198;28;20108;-65
2022/09/18 05:45:30;;;;;;;4.72;2.00;;;;;;;;;;2076753;28;20041;-65
2022/09/18 05:46:49;;;;;;;2.10;1.90;;;;;;;;;;2077801;28;20034;-66
2022/09/18 05:48:09;;;;;;;3.28;2.17;;;;;;;;;;2078532;28;20029;-65
2022/09/18 05:49:28;;;;;;;1.83;1.73;;;;;;;;;;2078107;28;20108;-65
2022/09/18 05:50:50;;;;;;;2.08;1.90;;;;;;;;;;2077882;28;20497;-65
2022/09/18 05:52:09;;;;;;;2.25;2.05;;;;;;;;;;2075138;28;20029;-64
2022/09/18 05:53:29;;;;;;;3.50;2.00;;;;;;;;;;2076996;28;20033;-64
2022/09/18 05:54:48;;;;;;;3.58;2.00;;;;;;;;;;2077280;28;20034;-65
2022/09/18 05:56:07;;;;;;;2.25;1.90;;;;;;;;;;2078972;28;20029;-65
2022/09/18 05:57:26;;;;;;;2.78;2.25;;;;;;;;;;2077420;28;20034;-65
2022/09/18 05:58:45;;;;;;;2.58;2.08;;;;;;;;;;2078501;28;20021;-65
2022/09/18 06:00:04;;;;;;;2.65;1.85;;;;;;;;;;2076120;28;20495;-66
2022/09/18 06:01:23;;;;;;;2.80;2.17;;;;;;;;;;2075786;28;20219;-65
2022/09/18 06:02:42;;;;;;;3.13;2.08;;;;;;;;;;2078922;28;20033;-65
2022/09/18 06:04:04;;;;;;;2.13;1.95;;;;;;;;;;2078486;28;20029;-65
2022/09/18 06:05:23;;;;;;;4.20;2.10;;;;;;;;;;2076177;28;20478;-65
2022/09/18 06:06:43;;;;;;;2.50;1.77;;;;;;;;;;2079410;28;20034;-65
2022/09/18 06:08:02;;;;;;;2.38;2.17;;;;;;;;;;2078900;28;20022;-65
2022/09/18 06:09:21;;;;;;;2.13;2.03;;;;;;;;;;2077919;28;20038;-65
2022/09/18 06:10:41;;;;;;;3.28;2.40;;;;;;;;;;2074170;28;20037;-65
2022/09/18 06:12:00;;;;;;;2.15;2.00;;;;;;;;;;2076309;28;20025;-65
2022/09/18 06:13:19;;;;;;;3.03;1.85;;;;;;;;;;2076217;28;20021;-65
2022/09/18 06:14:38;;;;;;;2.95;2.22;;;;;;;;;;2074091;28;20034;-65
2022/09/18 06:15:57;;;;;;;2.00;1.80;;;;;;;;;;2075273;28;20029;-65
2022/09/18 06:17:16;;;;;;;2.17;1.98;;;;;;;;;;2077065;28;20042;-65
2022/09/18 06:18:35;;;;;;;3.22;1.98;;;;;;;;;;2077047;28;20038;-65
2022/09/18 06:19:54;;;;;;;2.80;2.30;;;;;;;;;;2075609;28;20497;-65
2022/09/18 06:21:13;;;;;;;2.38;2.17;;;;;;;;;;2074568;28;20037;-65
2022/09/18 06:22:33;;;;;;;2.13;2.03;;;;;;;;;;2078491;28;20030;-65
2022/09/18 06:23:52;;;;;;;2.88;1.85;;;;;;;;;;2080410;28;20022;-65
2022/09/18 06:25:11;;;;;;;2.47;2.28;;;;;;;;;;2073540;28;20034;-66
2022/09/18 06:26:30;;;;;;;4.53;2.20;;;;;;;;;;2074669;28;20034;-65
2022/09/18 06:27:57;;;;;;;5.32;2.15;;;;;;;;;;2077210;28;20490;-65
2022/09/18 06:29:16;;;;;;;4.25;2.50;;;;;;;;;;2078800;28;20429;-65
2022/09/18 06:30:35;;;;;;;2.00;1.80;;;;;;;;;;2074407;28;20022;-65
2022/09/18 06:31:54;;;;;;;2.53;2.33;;;;;;;;;;2079425;28;20398;-65
2022/09/18 06:33:13;;;;;;;2.45;2.25;;;;;;;;;;2071103;28;20022;-65
2022/09/18 06:34:32;;;;;;;4.22;2.83;;;;;;;;;;2076185;28;20486;-64
2022/09/18 06:35:51;;;;;;;3.85;2.45;;;;;;;;;;2075655;28;20030;-69
2022/09/18 06:37:10;;;;;;;3.50;2.25;;;;;;;;;;2074359;28;20116;-65
2022/09/18 06:38:29;;;;;;;2.55;2.35;;;;;;;;;;2077402;28;20108;-64
2022/09/18 06:39:48;;;;;;;3.28;2.58;;;;;;;;;;2077183;28;20053;-65
2022/09/18 06:41:10;;;;;;;6.85;2.50;;;;;;;;;;2079886;28;20029;-64
2022/09/18 06:42:29;;;;;;;2.90;2.70;;;;;;;;;;2076442;28;20525;-64
2022/09/18 06:43:49;;;;;;;6.85;2.92;;;;;;;;;;2076982;28;20038;-64
2022/09/18 06:45:08;;;;;;;4.25;2.67;;;;;;;;;;2074072;28;20034;-65
2022/09/18 06:46:27;;;;;;;4.90;3.20;;;;;;;;;;2075265;28;20025;-64
2022/09/18 06:47:46;;;;;;;3.05;2.85;;;;;;;;;;2075115;28;20042;-65
2022/09/18 06:49:05;;;;;;;3.10;2.90;;;;;;;;;;2079291;28;20021;-65
2022/09/18 06:50:24;;;;;;;4.03;2.70;;;;;;;;;;2073524;28;20383;-65
2022/09/18 06:51:44;;;;;;;2.85;2.45;;;;;;;;;;2074822;28;20033;-65
2022/09/18 06:53:04;;;;;;;3.13;2.83;;;;;;;;;;2076409;28;20121;-65
2022/09/18 06:54:23;;;;;;;2.78;2.58;;;;;;;;;;2079281;28;20025;-65
2022/09/18 06:55:42;;;;;;;6.95;2.67;;;;;;;;;;2074249;28;20021;-65
2022/09/18 06:57:01;;;;;;;4.38;3.20;;;;;;;;;;2071343;28;20037;-66
2022/09/18 06:58:20;;;;;;;4.50;3.10;;;;;;;;;;2074124;28;20437;-65
2022/09/18 06:59:39;;;;;;;5.22;2.53;;;;;;;;;;2075135;28;20049;-65
2022/09/18 07:00:59;;;;;;;5.68;2.58;;;;;;;;;;2075082;28;20033;-65
2022/09/18 07:02:18;;;;;;;3.70;3.40;;;;;;;;;;2071760;28;20110;-65
2022/09/18 07:03:37;;;;;;;3.08;2.80;;;;;;;;;;2075527;28;20029;-65
2022/09/18 07:04:56;;;;;;;3.83;3.08;;;;;;;;;;2077993;28;20033;-65
2022/09/18 07:06:15;;;;;;;2.88;2.60;;;;;;;;;;2077377;28;20433;-65
2022/09/18 07:07:34;;;;;;;4.55;3.00;;;;;;;;;;2075800;28;20041;-65
2022/09/18 07:08:54;;;;;;;3.22;2.92;;;;;;;;;;2072436;28;20038;-65
2022/09/18 07:10:13;;;;;;;2.53;2.33;;;;;;;;;;2074893;28;20398;-65
2022/09/18 07:11:32;;;;;;;4.32;3.25;;;;;;;;;;2078848;28;20106;-65
2022/09/18 07:12:59;;;;;;;5.10;2.80;;;;;;;;;;2077075;28;20033;-65
2022/09/18 07:14:18;;;;;;;3.38;3.08;;;;;;;;;;2076725;28;20026;-65
2022/09/18 07:15:37;;;;;;;4.35;2.95;;;;;;;;;;2070575;28;20017;-65
2022/09/18 07:16:56;;;;;;;5.57;2.47;;;;;;;;;;2077712;28;20437;-65
2022/09/18 07:18:15;;;;;;;2.85;2.65;;;;;;;;;;2077240;28;20022;-65
2022/09/18 07:19:34;;;;;;;3.45;3.08;;;;;;;;;;2078860;28;20037;-65
2022/09/18 07:20:53;;;;;;;2.90;2.50;;;;;;;;;;2076419;28;20030;-65
2022/09/18 07:22:12;;;;;;;3.75;2.50;;;;;;;;;;2077349;28;20029;-65
2022/09/18 07:23:32;;;;;;;3.40;2.72;;;;;;;;;;2077907;28;20441;-65
2022/09/18 07:24:51;;;;;;;2.70;2.60;;;;;;;;;;2076641;28;20037;-65
2022/09/18 07:26:10;;;;;;;2.53;2.35;;;;;;;;;;2077456;28;20061;-65
2022/09/18 07:27:29;;;;;;;2.70;2.50;;;;;;;;;;2072867;28;20437;-66
2022/09/18 07:28:50;;;;;;;2.55;2.35;;;;;;;;;;2074786;28;20395;-65
2022/09/18 07:30:09;;;;;;;2.70;2.20;;;;;;;;;;2073492;28;20029;-65
2022/09/18 07:31:28;;;;;;;3.47;2.30;;;;;;;;;;2072810;28;20030;-65
2022/09/18 07:32:47;;;;;;;3.22;2.63;;;;;;;;;;2075523;28;20033;-65
2022/09/18 07:34:08;;;;;;;2.60;2.35;;;;;;;;;;2074845;28;20101;-66
2022/09/18 07:35:27;;;;;;;3.92;2.38;;;;;;;;;;2076156;28;20025;-65
2022/09/18 07:36:49;;;;;;;2.90;2.35;;;;;;;;;;2075584;28;20017;-66
2022/09/18 07:38:08;;;;;;;2.85;2.53;;;;;;;;;;2075533;28;20025;-65
2022/09/18 07:39:27;;;;;;;2.70;2.50;;;;;;;;;;2075436;28;20030;-65
2022/09/18 07:40:46;;;;;;;2.92;2.50;;;;;;;;;;2079803;28;20100;-65
2022/09/18 07:42:06;;;;;;;2.55;2.35;;;;;;;;;;2077318;28;20030;-65
2022/09/18 07:43:25;;;;;;;2.63;2.42;;;;;;;;;;2076458;28;20061;-65
2022/09/18 07:44:44;;;;;;;3.35;2.20;;;;;;;;;;2079133;28;20042;-66
2022/09/18 07:46:03;;;;;;;2.28;2.08;;;;;;;;;;2077229;28;20112;-65
2022/09/18 07:47:24;;;;;;;3.55;2.25;;;;;;;;;;2077901;28;20034;-65
2022/09/18 07:48:42;;;;;;;3.40;2.25;;;;;;;;;;2077158;28;20033;-65
2022/09/18 07:50:01;;;;;;;3.20;2.45;;;;;;;;;;2074880;28;20096;-65
2022/09/18 07:51:20;;;;;;;2.92;2.72;;;;;;;;;;2077513;28;20038;-66
2022/09/18 07:52:46;;;;;;;2.58;2.38;;;;;;;;;;2079389;28;20044;-66
2022/09/18 07:54:05;;;;;;;3.40;2.42;;;;;;;;;;2078509;28;20026;-65
2022/09/18 07:55:25;;;;;;;3.03;2.53;;;;;;;;;;2077052;28;20029;-65
2022/09/18 07:56:44;;;;;;;3.95;2.38;;;;;;;;;;2076715;28;20061;-65
2022/09/18 07:58:05;;;;;;;5.57;2.42;;;;;;;;;;2078224;28;20030;-67
2022/09/18 07:59:23;;;;;;;2.40;2.20;;;;;;;;;;2079714;28;20033;-65
2022/09/18 08:00:42;;;;;;;2.10;2.00;;;;;;;;;;2076371;28;20069;-65
2022/09/18 08:02:03;;;;;;;2.20;1.98;;;;;;;;;;2076862;28;20025;-65
2022/09/18 08:03:21;;;;;;;1.70;1.60;;;;;;;;;;2077668;28;20038;-65
2022/09/18 08:04:40;;;;;;;1.83;1.73;;;;;;;;;;2079750;28;20045;-65
2022/09/18 08:05:59;;;;;;;5.00;1.58;;;;;;;;;;2077577;28;20112;-65